sensor_id;sensor_type;location;lat;lon;timestamp;pressure;altitude;pressure_sealevel;temperature;humidity
9839;BME280;4958;48.150;11.506;2023-02-21T00:01:38;96052.06;;;10.91;48.32
9839;BME280;4958;48.150;11.506;2023-02-21T00:04:21;96046.63;;;10.86;47.94
9839;BME280;4958;48.150;11.506;2023-02-21T00:07:05;96048.22;;;10.79;48.59
9839;BME280;4958;48.150;11.506;2023-02-21T00:09:50;96052.59;;;10.79;48.61
9839;BME280;4958;48.150;11.506;2023-02-21T00:12:33;96041.16;;;10.81;48.25
9839;BME280;4958;48.150;11.506;2023-02-21T00:15:17;96040.19;;;10.82;48.71
9839;BME280;4958;48.150;11.506;2023-02-21T00:18:03;96043.09;;;10.79;48.29
9839;BME280;4958;48.150;11.506;2023-02-21T00:20:46;96039.91;;;10.77;48.56
9839;BME280;4958;48.150;11.506;2023-02-21T00:23:32;96041.34;;;10.71;49.00
9839;BME280;4958;48.150;11.506;2023-02-21T00:26:17;96036.03;;;10.73;48.95
9839;BME280;4958;48.150;11.506;2023-02-21T00:29:00;96036.53;;;10.68;49.00
9839;BME280;4958;48.150;11.506;2023-02-21T00:31:44;96037.00;;;10.72;49.27
9839;BME280;4958;48.150;11.506;2023-02-21T00:34:30;96037.66;;;10.74;48.87
9839;BME280;4958;48.150;11.506;2023-02-21T00:37:14;96033.97;;;10.68;49.09
9839;BME280;4958;48.150;11.506;2023-02-21T00:39:58;96043.13;;;10.71;49.27
9839;BME280;4958;48.150;11.506;2023-02-21T00:42:42;96038.16;;;10.69;49.15
9839;BME280;4958;48.150;11.506;2023-02-21T00:45:26;96037.34;;;10.69;49.60
9839;BME280;4958;48.150;11.506;2023-02-21T00:48:10;96040.25;;;10.66;49.60
9839;BME280;4958;48.150;11.506;2023-02-21T00:50:55;96028.97;;;10.67;49.77
9839;BME280;4958;48.150;11.506;2023-02-21T00:53:39;96024.94;;;10.64;49.72
9839;BME280;4958;48.150;11.506;2023-02-21T00:56:23;96030.94;;;10.57;49.78
9839;BME280;4958;48.150;11.506;2023-02-21T00:59:07;96030.94;;;10.57;49.94
9839;BME280;4958;48.150;11.506;2023-02-21T01:01:51;96025.44;;;10.60;49.64
9839;BME280;4958;48.150;11.506;2023-02-21T01:04:35;96031.06;;;10.63;49.59
9839;BME280;4958;48.150;11.506;2023-02-21T01:07:20;96023.34;;;10.63;50.03
9839;BME280;4958;48.150;11.506;2023-02-21T01:10:05;96031.41;;;10.60;50.06
9839;BME280;4958;48.150;11.506;2023-02-21T01:12:49;96025.00;;;10.56;50.16
9839;BME280;4958;48.150;11.506;2023-02-21T01:15:33;96020.81;;;10.55;50.32
9839;BME280;4958;48.150;11.506;2023-02-21T01:18:16;96019.38;;;10.53;50.45
9839;BME280;4958;48.150;11.506;2023-02-21T01:21:00;96026.94;;;10.54;50.11
9839;BME280;4958;48.150;11.506;2023-02-21T01:23:46;96018.06;;;10.57;50.16
9839;BME280;4958;48.150;11.506;2023-02-21T01:26:31;96009.72;;;10.55;50.43
9839;BME280;4958;48.150;11.506;2023-02-21T01:29:15;96008.91;;;10.54;49.98
9839;BME280;4958;48.150;11.506;2023-02-21T01:31:59;95999.91;;;10.50;50.30
9839;BME280;4958;48.150;11.506;2023-02-21T01:34:43;96007.94;;;10.47;50.33
9839;BME280;4958;48.150;11.506;2023-02-21T01:37:27;96006.03;;;10.41;50.53
9839;BME280;4958;48.150;11.506;2023-02-21T01:40:15;96002.03;;;10.38;51.02
9839;BME280;4958;48.150;11.506;2023-02-21T01:42:59;95998.19;;;10.34;51.27
9839;BME280;4958;48.150;11.506;2023-02-21T01:45:47;95992.06;;;10.35;51.10
9839;BME280;4958;48.150;11.506;2023-02-21T01:48:32;96001.03;;;10.39;51.14
9839;BME280;4958;48.150;11.506;2023-02-21T01:51:20;96000.88;;;10.41;50.92
9839;BME280;4958;48.150;11.506;2023-02-21T01:54:06;95992.34;;;10.41;51.29
9839;BME280;4958;48.150;11.506;2023-02-21T01:56:52;96001.03;;;10.39;51.46
9839;BME280;4958;48.150;11.506;2023-02-21T01:59:38;95991.53;;;10.40;51.00
9839;BME280;4958;48.150;11.506;2023-02-21T02:02:28;95984.00;;;10.38;51.57
9839;BME280;4958;48.150;11.506;2023-02-21T02:05:12;95978.88;;;10.38;51.49
9839;BME280;4958;48.150;11.506;2023-02-21T02:07:56;95978.56;;;10.33;51.43
9839;BME280;4958;48.150;11.506;2023-02-21T02:10:41;95981.59;;;10.37;51.69
9839;BME280;4958;48.150;11.506;2023-02-21T02:13:44;95982.72;;;10.34;51.70
9839;BME280;4958;48.150;11.506;2023-02-21T02:16:20;95977.75;;;10.33;51.74
9839;BME280;4958;48.150;11.506;2023-02-21T02:18:59;95967.78;;;10.30;51.52
9839;BME280;4958;48.150;11.506;2023-02-21T02:24:57;95971.53;;;10.19;52.09
9839;BME280;4958;48.150;11.506;2023-02-21T02:27:44;95972.94;;;10.14;52.03
9839;BME280;4958;48.150;11.506;2023-02-21T02:30:42;95976.47;;;10.13;52.46
9839;BME280;4958;48.150;11.506;2023-02-21T02:33:32;95964.94;;;10.00;52.23
9839;BME280;4958;48.150;11.506;2023-02-21T02:36:08;95965.56;;;9.94;52.72
9839;BME280;4958;48.150;11.506;2023-02-21T02:38:40;95965.25;;;9.89;52.85
9839;BME280;4958;48.150;11.506;2023-02-21T02:41:15;95972.31;;;9.87;52.40
9839;BME280;4958;48.150;11.506;2023-02-21T02:43:47;95971.69;;;9.77;53.25
9839;BME280;4958;48.150;11.506;2023-02-21T02:46:18;95968.16;;;9.78;52.73
9839;BME280;4958;48.150;11.506;2023-02-21T02:48:49;95965.28;;;9.73;53.13
9839;BME280;4958;48.150;11.506;2023-02-21T02:51:20;95961.91;;;9.73;53.18
9839;BME280;4958;48.150;11.506;2023-02-21T02:53:47;95964.31;;;9.74;53.04
9839;BME280;4958;48.150;11.506;2023-02-21T02:56:15;95963.03;;;9.78;53.16
9839;BME280;4958;48.150;11.506;2023-02-21T02:58:46;95966.56;;;9.77;53.57
9839;BME280;4958;48.150;11.506;2023-02-21T03:01:23;95955.31;;;9.78;53.50
9839;BME280;4958;48.150;11.506;2023-02-21T03:04:12;95954.50;;;9.78;53.21
9839;BME280;4958;48.150;11.506;2023-02-21T03:06:49;95949.03;;;9.81;53.26
9839;BME280;4958;48.150;11.506;2023-02-21T03:09:24;95952.41;;;9.81;53.25
9839;BME280;4958;48.150;11.506;2023-02-21T03:11:59;95959.66;;;9.78;53.36
9839;BME280;4958;48.150;11.506;2023-02-21T03:14:33;95949.69;;;9.75;53.67
9839;BME280;4958;48.150;11.506;2023-02-21T03:17:06;95951.28;;;9.76;53.07
9839;BME280;4958;48.150;11.506;2023-02-21T03:19:36;95959.47;;;9.71;53.72
9839;BME280;4958;48.150;11.506;2023-02-21T03:22:07;95960.59;;;9.68;53.23
9839;BME280;4958;48.150;11.506;2023-02-21T03:24:36;95961.72;;;9.66;53.39
9839;BME280;4958;48.150;11.506;2023-02-21T03:27:06;95954.81;;;9.66;53.41
9839;BME280;4958;48.150;11.506;2023-02-21T03:29:33;95964.28;;;9.66;53.74
9839;BME280;4958;48.150;11.506;2023-02-21T03:32:05;95968.34;;;9.60;53.91
9839;BME280;4958;48.150;11.506;2023-02-21T03:34:37;95968.97;;;9.54;53.97
9839;BME280;4958;48.150;11.506;2023-02-21T03:37:07;95966.25;;;9.56;53.88
9839;BME280;4958;48.150;11.506;2023-02-21T03:39:34;95970.25;;;9.58;53.75
9839;BME280;4958;48.150;11.506;2023-02-21T03:42:01;95966.72;;;9.59;53.34
9839;BME280;4958;48.150;11.506;2023-02-21T03:44:27;95963.03;;;9.54;53.71
9839;BME280;4958;48.150;11.506;2023-02-21T03:46:54;95966.72;;;9.51;53.81
9839;BME280;4958;48.150;11.506;2023-02-21T03:49:20;95964.31;;;9.50;53.83
9839;BME280;4958;48.150;11.506;2023-02-21T03:51:47;95966.88;;;9.50;53.93
9839;BME280;4958;48.150;11.506;2023-02-21T03:54:14;95959.97;;;9.50;53.95
9839;BME280;4958;48.150;11.506;2023-02-21T03:56:41;95968.63;;;9.49;54.26
9839;BME280;4958;48.150;11.506;2023-02-21T03:59:08;95960.13;;;9.49;54.20
9839;BME280;4958;48.150;11.506;2023-02-21T04:01:34;95963.66;;;9.48;53.43
9839;BME280;4958;48.150;11.506;2023-02-21T04:04:00;95962.53;;;9.42;54.03
9839;BME280;4958;48.150;11.506;2023-02-21T04:06:27;95962.72;;;9.41;53.99
9839;BME280;4958;48.150;11.506;2023-02-21T04:08:53;95964.31;;;9.42;54.25
9839;BME280;4958;48.150;11.506;2023-02-21T04:11:21;95964.94;;;9.44;54.16
9839;BME280;4958;48.150;11.506;2023-02-21T04:13:48;95966.06;;;9.41;54.31
9839;BME280;4958;48.150;11.506;2023-02-21T04:16:14;95965.44;;;9.39;54.26
9839;BME280;4958;48.150;11.506;2023-02-21T04:18:41;95966.06;;;9.33;54.34
9839;BME280;4958;48.150;11.506;2023-02-21T04:21:07;95965.06;;;9.26;54.35
9839;BME280;4958;48.150;11.506;2023-02-21T04:23:33;95968.31;;;9.20;54.48
9839;BME280;4958;48.150;11.506;2023-02-21T04:26:00;95966.53;;;9.20;54.88
9839;BME280;4958;48.150;11.506;2023-02-21T04:28:28;95971.34;;;9.23;54.88
9839;BME280;4958;48.150;11.506;2023-02-21T04:30:54;95966.53;;;9.20;55.02
9839;BME280;4958;48.150;11.506;2023-02-21T04:33:20;95964.94;;;9.19;55.10
9839;BME280;4958;48.150;11.506;2023-02-21T04:35:47;95957.53;;;9.16;55.05
9839;BME280;4958;48.150;11.506;2023-02-21T04:38:14;95957.84;;;9.13;55.20
9839;BME280;4958;48.150;11.506;2023-02-21T04:40:41;95957.66;;;9.07;54.95
9839;BME280;4958;48.150;11.506;2023-02-21T04:43:07;95958.13;;;8.94;55.88
9839;BME280;4958;48.150;11.506;2023-02-21T04:45:35;95952.63;;;8.81;55.79
9839;BME280;4958;48.150;11.506;2023-02-21T04:48:01;95958.75;;;8.80;55.98
9839;BME280;4958;48.150;11.506;2023-02-21T04:50:28;95949.13;;;8.82;56.15
9839;BME280;4958;48.150;11.506;2023-02-21T04:52:54;95951.19;;;8.86;55.81
9839;BME280;4958;48.150;11.506;2023-02-21T04:55:21;95948.97;;;8.91;56.03
9839;BME280;4958;48.150;11.506;2023-02-21T04:57:48;95943.53;;;8.94;55.73
9839;BME280;4958;48.150;11.506;2023-02-21T05:00:15;95945.13;;;8.95;55.75
9839;BME280;4958;48.150;11.506;2023-02-21T05:02:43;95948.66;;;8.94;55.69
9839;BME280;4958;48.150;11.506;2023-02-21T05:05:10;95946.91;;;8.95;55.40
9839;BME280;4958;48.150;11.506;2023-02-21T05:07:37;95943.22;;;8.97;55.42
9839;BME280;4958;48.150;11.506;2023-02-21T05:10:03;95942.41;;;8.97;55.81
9839;BME280;4958;48.150;11.506;2023-02-21T05:12:30;95947.72;;;9.04;55.71
9839;BME280;4958;48.150;11.506;2023-02-21T05:14:57;95946.94;;;9.03;55.61
9839;BME280;4958;48.150;11.506;2023-02-21T05:17:23;95944.66;;;9.08;55.04
9839;BME280;4958;48.150;11.506;2023-02-21T05:19:53;95941.13;;;9.09;55.53
9839;BME280;4958;48.150;11.506;2023-02-21T05:22:20;95934.22;;;9.10;55.38
9839;BME280;4958;48.150;11.506;2023-02-21T05:24:47;95934.56;;;9.15;55.17
9839;BME280;4958;48.150;11.506;2023-02-21T05:27:14;95927.19;;;9.12;55.26
9839;BME280;4958;48.150;11.506;2023-02-21T05:29:41;95932.31;;;9.12;55.51
9839;BME280;4958;48.150;11.506;2023-02-21T05:32:07;95927.19;;;9.12;54.89
9839;BME280;4958;48.150;11.506;2023-02-21T05:34:34;95931.16;;;9.06;55.34
9839;BME280;4958;48.150;11.506;2023-02-21T05:37:02;95932.13;;;9.05;55.49
9839;BME280;4958;48.150;11.506;2023-02-21T05:39:28;95929.75;;;9.04;55.48
9839;BME280;4958;48.150;11.506;2023-02-21T05:41:54;95924.13;;;9.00;55.37
9839;BME280;4958;48.150;11.506;2023-02-21T05:44:21;95926.84;;;8.98;55.20
9839;BME280;4958;48.150;11.506;2023-02-21T05:46:47;95927.97;;;8.96;55.17
9839;BME280;4958;48.150;11.506;2023-02-21T05:49:14;95928.13;;;8.94;55.62
9839;BME280;4958;48.150;11.506;2023-02-21T05:51:42;95922.97;;;8.94;55.33
9839;BME280;4958;48.150;11.506;2023-02-21T05:54:13;95918.00;;;8.93;55.46
9839;BME280;4958;48.150;11.506;2023-02-21T05:56:42;95918.81;;;8.93;56.16
9839;BME280;4958;48.150;11.506;2023-02-21T05:59:09;95918.31;;;8.90;57.32
9839;BME280;4958;48.150;11.506;2023-02-21T06:01:35;95919.28;;;8.89;56.02
9839;BME280;4958;48.150;11.506;2023-02-21T06:04:03;95914.94;;;8.89;55.54
9839;BME280;4958;48.150;11.506;2023-02-21T06:06:31;95915.25;;;8.86;55.04
9839;BME280;4958;48.150;11.506;2023-02-21T06:08:58;95919.28;;;8.89;55.24
9839;BME280;4958;48.150;11.506;2023-02-21T06:11:27;95918.31;;;8.90;54.95
9839;BME280;4958;48.150;11.506;2023-02-21T06:13:56;95926.16;;;8.88;55.18
9839;BME280;4958;48.150;11.506;2023-02-21T06:16:23;95926.16;;;8.88;54.83
9839;BME280;4958;48.150;11.506;2023-02-21T06:18:50;95926.16;;;8.88;54.65
9839;BME280;4958;48.150;11.506;2023-02-21T06:21:17;95925.53;;;8.86;55.10
9839;BME280;4958;48.150;11.506;2023-02-21T06:23:44;95927.47;;;8.84;55.26
9839;BME280;4958;48.150;11.506;2023-02-21T06:26:10;95922.78;;;8.88;55.11
9839;BME280;4958;48.150;11.506;2023-02-21T06:28:38;95939.19;;;8.95;54.93
9839;BME280;4958;48.150;11.506;2023-02-21T06:31:05;95931.03;;;8.99;54.62
9839;BME280;4958;48.150;11.506;2023-02-21T06:33:32;95935.34;;;8.99;54.41
9839;BME280;4958;48.150;11.506;2023-02-21T06:36:03;95932.13;;;9.05;54.26
9839;BME280;4958;48.150;11.506;2023-02-21T06:38:30;95940.81;;;9.12;54.38
9839;BME280;4958;48.150;11.506;2023-02-21T06:40:56;95935.69;;;9.28;53.54
9839;BME280;4958;48.150;11.506;2023-02-21T06:43:24;95931.06;;;9.56;53.23
9839;BME280;4958;48.150;11.506;2023-02-21T06:45:52;95932.94;;;9.87;52.65
9839;BME280;4958;48.150;11.506;2023-02-21T06:48:19;95934.19;;;10.07;51.19
9839;BME280;4958;48.150;11.506;2023-02-21T06:50:45;95937.69;;;10.38;50.81
9839;BME280;4958;48.150;11.506;2023-02-21T06:53:11;95946.22;;;10.70;50.10
9839;BME280;4958;48.150;11.506;2023-02-21T06:55:38;95954.19;;;10.91;49.31
9839;BME280;4958;48.150;11.506;2023-02-21T06:58:04;95948.53;;;11.19;48.98
9839;BME280;4958;48.150;11.506;2023-02-21T07:00:31;95945.78;;;11.43;49.13
9839;BME280;4958;48.150;11.506;2023-02-21T07:02:59;95956.69;;;11.53;48.35
9839;BME280;4958;48.150;11.506;2023-02-21T07:05:25;95963.66;;;11.67;47.68
9839;BME280;4958;48.150;11.506;2023-02-21T07:07:53;95961.00;;;11.75;47.70
9839;BME280;4958;48.150;11.506;2023-02-21T07:10:19;95963.66;;;11.67;47.72
9839;BME280;4958;48.150;11.506;2023-02-21T07:12:46;95963.94;;;11.72;47.74
9839;BME280;4958;48.150;11.506;2023-02-21T07:15:12;95967.31;;;11.96;47.38
9839;BME280;4958;48.150;11.506;2023-02-21T07:17:39;95963.78;;;12.26;46.40
9839;BME280;4958;48.150;11.506;2023-02-21T07:20:08;95966.38;;;12.56;45.54
9839;BME280;4958;48.150;11.506;2023-02-21T07:22:34;95966.31;;;13.00;45.51
9839;BME280;4958;48.150;11.506;2023-02-21T07:25:01;95973.03;;;13.30;45.03
9839;BME280;4958;48.150;11.506;2023-02-21T07:27:28;95968.66;;;13.52;43.95
9839;BME280;4958;48.150;11.506;2023-02-21T07:29:54;95962.75;;;13.58;43.20
9839;BME280;4958;48.150;11.506;2023-02-21T07:32:21;95957.44;;;13.66;43.16
9839;BME280;4958;48.150;11.506;2023-02-21T07:34:47;95959.19;;;13.87;42.87
9839;BME280;4958;48.150;11.506;2023-02-21T07:37:15;95965.00;;;13.89;41.88
9839;BME280;4958;48.150;11.506;2023-02-21T07:39:41;95961.09;;;14.00;42.25
9839;BME280;4958;48.150;11.506;2023-02-21T07:42:08;95959.63;;;14.18;42.25
9839;BME280;4958;48.150;11.506;2023-02-21T07:44:34;95969.47;;;14.30;42.42
9839;BME280;4958;48.150;11.506;2023-02-21T07:47:01;95960.28;;;14.27;41.89
9839;BME280;4958;48.150;11.506;2023-02-21T07:49:27;95970.06;;;14.32;42.26
9839;BME280;4958;48.150;11.506;2023-02-21T07:51:54;95970.31;;;14.37;41.81
9839;BME280;4958;48.150;11.506;2023-02-21T07:54:22;95969.03;;;14.54;41.34
9839;BME280;4958;48.150;11.506;2023-02-21T07:56:48;95966.03;;;14.92;41.03
9839;BME280;4958;48.150;11.506;2023-02-21T07:59:16;95966.47;;;15.08;40.06
9839;BME280;4958;48.150;11.506;2023-02-21T08:01:42;95965.94;;;15.33;39.94
9839;BME280;4958;48.150;11.506;2023-02-21T08:04:10;95963.94;;;15.41;39.99
9839;BME280;4958;48.150;11.506;2023-02-21T08:06:37;95979.59;;;15.68;40.12
9839;BME280;4958;48.150;11.506;2023-02-21T08:09:04;95977.63;;;15.83;39.41
9839;BME280;4958;48.150;11.506;2023-02-21T08:11:32;95973.81;;;16.05;38.83
9839;BME280;4958;48.150;11.506;2023-02-21T08:14:00;95972.59;;;16.21;38.54
9839;BME280;4958;48.150;11.506;2023-02-21T08:16:27;95975.81;;;16.30;37.85
9839;BME280;4958;48.150;11.506;2023-02-21T08:18:53;95971.53;;;16.55;38.00
9839;BME280;4958;48.150;11.506;2023-02-21T08:21:20;95974.91;;;16.75;37.63
9839;BME280;4958;48.150;11.506;2023-02-21T08:23:46;95974.81;;;17.08;37.83
9839;BME280;4958;48.150;11.506;2023-02-21T08:26:13;95973.97;;;17.14;37.28
9839;BME280;4958;48.150;11.506;2023-02-21T08:28:40;95976.72;;;17.26;37.23
9839;BME280;4958;48.150;11.506;2023-02-21T08:31:07;95977.94;;;17.23;36.56
9839;BME280;4958;48.150;11.506;2023-02-21T08:33:33;95979.25;;;17.33;36.76
9839;BME280;4958;48.150;11.506;2023-02-21T08:36:00;95977.47;;;17.33;35.96
9839;BME280;4958;48.150;11.506;2023-02-21T08:38:26;95979.00;;;17.47;35.99
9839;BME280;4958;48.150;11.506;2023-02-21T08:40:52;95977.09;;;17.68;36.41
9839;BME280;4958;48.150;11.506;2023-02-21T08:43:19;95985.19;;;17.84;36.05
9839;BME280;4958;48.150;11.506;2023-02-21T08:45:47;95972.84;;;17.98;35.85
9839;BME280;4958;48.150;11.506;2023-02-21T08:48:13;95971.81;;;18.06;35.61
9839;BME280;4958;48.150;11.506;2023-02-21T08:50:39;95974.72;;;18.16;35.64
9839;BME280;4958;48.150;11.506;2023-02-21T08:53:06;95970.72;;;18.13;35.35
9839;BME280;4958;48.150;11.506;2023-02-21T08:55:32;95969.66;;;17.96;34.84
9839;BME280;4958;48.150;11.506;2023-02-21T08:57:59;95971.47;;;17.95;34.75
9839;BME280;4958;48.150;11.506;2023-02-21T09:00:26;95984.91;;;17.92;35.16
9839;BME280;4958;48.150;11.506;2023-02-21T09:02:54;95976.22;;;18.05;35.19
9839;BME280;4958;48.150;11.506;2023-02-21T09:05:23;95976.47;;;18.22;34.87
9839;BME280;4958;48.150;11.506;2023-02-21T09:07:51;95972.28;;;18.39;35.21
9839;BME280;4958;48.150;11.506;2023-02-21T09:10:20;95975.56;;;18.53;34.68
9839;BME280;4958;48.150;11.506;2023-02-21T09:12:46;95969.38;;;18.47;34.28
9839;BME280;4958;48.150;11.506;2023-02-21T09:15:13;95967.03;;;18.46;34.29
9839;BME280;4958;48.150;11.506;2023-02-21T09:17:40;95963.97;;;18.49;34.22
9839;BME280;4958;48.150;11.506;2023-02-21T09:20:10;95967.81;;;18.46;33.63
9839;BME280;4958;48.150;11.506;2023-02-21T09:22:41;95969.34;;;18.54;33.99
9839;BME280;4958;48.150;11.506;2023-02-21T09:25:09;95970.09;;;18.61;33.57
9839;BME280;4958;48.150;11.506;2023-02-21T09:27:37;95967.28;;;18.62;33.06
9839;BME280;4958;48.150;11.506;2023-02-21T09:30:05;95970.25;;;18.66;33.39
9839;BME280;4958;48.150;11.506;2023-02-21T09:32:32;95969.22;;;18.67;33.23
9839;BME280;4958;48.150;11.506;2023-02-21T09:34:59;95965.25;;;18.65;32.46
9839;BME280;4958;48.150;11.506;2023-02-21T09:37:27;95972.53;;;18.56;33.43
9839;BME280;4958;48.150;11.506;2023-02-21T09:39:53;95967.50;;;18.61;33.01
9839;BME280;4958;48.150;11.506;2023-02-21T09:42:23;95970.31;;;18.59;32.80
9839;BME280;4958;48.150;11.506;2023-02-21T09:44:53;95975.47;;;18.66;32.71
9839;BME280;4958;48.150;11.506;2023-02-21T09:47:26;95968.53;;;18.53;32.66
9839;BME280;4958;48.150;11.506;2023-02-21T09:49:58;95977.75;;;18.56;32.92
9839;BME280;4958;48.150;11.506;2023-02-21T09:52:30;95964.09;;;18.60;33.65
9839;BME280;4958;48.150;11.506;2023-02-21T09:55:01;95963.88;;;18.62;33.65
9839;BME280;4958;48.150;11.506;2023-02-21T09:57:28;95963.75;;;18.50;33.81
9839;BME280;4958;48.150;11.506;2023-02-21T09:59:55;95956.66;;;18.57;33.51
9839;BME280;4958;48.150;11.506;2023-02-21T10:02:31;95949.59;;;18.65;33.21
9839;BME280;4958;48.150;11.506;2023-02-21T10:05:11;95963.50;;;18.77;33.27
9839;BME280;4958;48.150;11.506;2023-02-21T10:07:50;95953.59;;;18.85;32.85
9839;BME280;4958;48.150;11.506;2023-02-21T10:10:27;95954.50;;;18.91;33.40
9839;BME280;4958;48.150;11.506;2023-02-21T10:13:00;95953.06;;;18.95;33.15
9839;BME280;4958;48.150;11.506;2023-02-21T10:15:38;95950.06;;;19.10;32.59
9839;BME280;4958;48.150;11.506;2023-02-21T10:18:17;95943.81;;;19.11;32.48
9839;BME280;4958;48.150;11.506;2023-02-21T10:20:48;95956.44;;;19.14;32.75
9839;BME280;4958;48.150;11.506;2023-02-21T10:23:23;95950.13;;;19.21;32.73
9839;BME280;4958;48.150;11.506;2023-02-21T10:25:55;95951.16;;;19.32;32.77
9839;BME280;4958;48.150;11.506;2023-02-21T10:28:24;95953.25;;;19.42;33.20
9839;BME280;4958;48.150;11.506;2023-02-21T10:30:53;95948.56;;;19.44;33.09
9839;BME280;4958;48.150;11.506;2023-02-21T10:33:21;95947.00;;;19.43;33.34
9839;BME280;4958;48.150;11.506;2023-02-21T10:35:47;95947.97;;;19.30;33.35
9839;BME280;4958;48.150;11.506;2023-02-21T10:38:18;95955.16;;;19.35;33.10
9839;BME280;4958;48.150;11.506;2023-02-21T10:40:50;95962.53;;;19.38;32.99
9839;BME280;4958;48.150;11.506;2023-02-21T10:43:20;95962.31;;;19.39;32.93
9839;BME280;4958;48.150;11.506;2023-02-21T10:45:50;95956.31;;;19.39;32.42
9839;BME280;4958;48.150;11.506;2023-02-21T10:48:20;95961.38;;;19.33;32.55
9839;BME280;4958;48.150;11.506;2023-02-21T10:50:51;95950.81;;;19.28;32.92
9839;BME280;4958;48.150;11.506;2023-02-21T10:53:28;95951.75;;;19.34;32.47
9839;BME280;4958;48.150;11.506;2023-02-21T10:56:19;95942.31;;;19.33;32.28
9839;BME280;4958;48.150;11.506;2023-02-21T10:58:47;95943.66;;;19.24;32.64
9839;BME280;4958;48.150;11.506;2023-02-21T11:01:16;95943.16;;;19.15;32.81
9839;BME280;4958;48.150;11.506;2023-02-21T11:03:44;95944.19;;;19.14;33.00
9839;BME280;4958;48.150;11.506;2023-02-21T11:06:23;95938.44;;;19.06;32.34
9839;BME280;4958;48.150;11.506;2023-02-21T11:08:49;95931.78;;;19.10;33.46
9839;BME280;4958;48.150;11.506;2023-02-21T11:11:30;95926.13;;;19.13;33.91
9839;BME280;4958;48.150;11.506;2023-02-21T11:14:07;95925.81;;;19.21;33.34
9839;BME280;4958;48.150;11.506;2023-02-21T11:16:43;95924.00;;;19.21;33.26
9839;BME280;4958;48.150;11.506;2023-02-21T11:19:12;95920.16;;;19.24;33.16
9839;BME280;4958;48.150;11.506;2023-02-21T11:21:40;95911.19;;;19.31;33.20
9839;BME280;4958;48.150;11.506;2023-02-21T11:24:10;95912.13;;;19.37;33.05
9839;BME280;4958;48.150;11.506;2023-02-21T11:26:44;95897.16;;;19.44;32.95
9839;BME280;4958;48.150;11.506;2023-02-21T11:29:14;95903.09;;;19.51;33.34
9839;BME280;4958;48.150;11.506;2023-02-21T11:31:42;95900.00;;;19.43;32.40
9839;BME280;4958;48.150;11.506;2023-02-21T11:34:12;95890.34;;;19.43;32.70
9839;BME280;4958;48.150;11.506;2023-02-21T11:36:40;95891.47;;;19.36;32.50
9839;BME280;4958;48.150;11.506;2023-02-21T11:39:14;95893.41;;;19.40;32.42
9839;BME280;4958;48.150;11.506;2023-02-21T11:41:47;95885.31;;;19.30;32.63
9839;BME280;4958;48.150;11.506;2023-02-21T11:44:26;95877.25;;;19.31;32.80
9839;BME280;4958;48.150;11.506;2023-02-21T11:47:00;95877.03;;;19.33;32.98
9839;BME280;4958;48.150;11.506;2023-02-21T11:49:37;95879.66;;;19.45;33.02
9839;BME280;4958;48.150;11.506;2023-02-21T11:52:10;95870.97;;;19.51;32.73
9839;BME280;4958;48.150;11.506;2023-02-21T11:54:37;95869.38;;;19.50;32.42
9839;BME280;4958;48.150;11.506;2023-02-21T11:57:24;95865.25;;;19.42;32.90
9839;BME280;4958;48.150;11.506;2023-02-21T11:59:57;95852.06;;;19.37;32.67
9839;BME280;4958;48.150;11.506;2023-02-21T12:02:44;95858.22;;;19.43;33.03
9839;BME280;4958;48.150;11.506;2023-02-21T12:05:24;95856.88;;;19.52;32.98
9839;BME280;4958;48.150;11.506;2023-02-21T12:08:08;95841.72;;;19.30;32.48
9839;BME280;4958;48.150;11.506;2023-02-21T12:10:45;95845.25;;;19.36;32.79
9839;BME280;4958;48.150;11.506;2023-02-21T12:13:19;95842.28;;;19.21;32.12
9839;BME280;4958;48.150;11.506;2023-02-21T12:15:56;95835.88;;;19.05;32.29
9839;BME280;4958;48.150;11.506;2023-02-21T12:18:41;95842.94;;;19.16;32.91
9839;BME280;4958;48.150;11.506;2023-02-21T12:21:29;95833.22;;;19.23;32.54
9839;BME280;4958;48.150;11.506;2023-02-21T12:24:06;95831.06;;;19.32;32.20
9839;BME280;4958;48.150;11.506;2023-02-21T12:26:47;95828.66;;;19.30;31.87
9839;BME280;4958;48.150;11.506;2023-02-21T12:29:28;95816.41;;;19.19;31.99
9839;BME280;4958;48.150;11.506;2023-02-21T12:32:18;95813.56;;;19.32;32.45
9839;BME280;4958;48.150;11.506;2023-02-21T12:35:01;95805.50;;;19.46;32.18
9839;BME280;4958;48.150;11.506;2023-02-21T12:37:35;95807.09;;;19.47;32.20
9839;BME280;4958;48.150;11.506;2023-02-21T12:40:18;95802.94;;;19.57;32.87
9839;BME280;4958;48.150;11.506;2023-02-21T12:43:03;95807.94;;;19.71;32.21
9839;BME280;4958;48.150;11.506;2023-02-21T12:45:51;95795.31;;;19.67;32.31
9839;BME280;4958;48.150;11.506;2023-02-21T12:48:29;95794.28;;;19.45;32.26
9839;BME280;4958;48.150;11.506;2023-02-21T12:50:59;95785.63;;;19.45;32.89
9839;BME280;4958;48.150;11.506;2023-02-21T12:53:32;95790.56;;;19.64;33.01
9839;BME280;4958;48.150;11.506;2023-02-21T12:56:03;95787.50;;;19.56;32.79
9839;BME280;4958;48.150;11.506;2023-02-21T12:58:33;95781.25;;;19.57;33.46
9839;BME280;4958;48.150;11.506;2023-02-21T13:01:07;95781.47;;;19.67;33.27
9839;BME280;4958;48.150;11.506;2023-02-21T13:03:46;95774.09;;;19.52;33.28
9839;BME280;4958;48.150;11.506;2023-02-21T13:06:20;95772.50;;;19.63;32.68
9839;BME280;4958;48.150;11.506;2023-02-21T13:08:55;95768.19;;;19.69;32.69
9839;BME280;4958;48.150;11.506;2023-02-21T13:11:30;95764.56;;;19.81;32.63
9839;BME280;4958;48.150;11.506;2023-02-21T13:13:57;95755.22;;;19.85;32.46
9839;BME280;4958;48.150;11.506;2023-02-21T13:16:26;95751.44;;;19.93;32.47
9839;BME280;4958;48.150;11.506;2023-02-21T13:18:55;95758.28;;;19.94;32.44
9839;BME280;4958;48.150;11.506;2023-02-21T13:21:36;95747.53;;;20.07;33.00
9839;BME280;4958;48.150;11.506;2023-02-21T13:24:13;95746.34;;;19.98;32.85
9839;BME280;4958;48.150;11.506;2023-02-21T13:26:50;95746.16;;;20.16;32.87
9839;BME280;4958;48.150;11.506;2023-02-21T13:29:23;95737.72;;;20.26;32.55
9839;BME280;4958;48.150;11.506;2023-02-21T13:31:58;95730.66;;;20.26;31.98
9839;BME280;4958;48.150;11.506;2023-02-21T13:34:28;95731.06;;;20.18;32.37
9839;BME280;4958;48.150;11.506;2023-02-21T13:37:00;95724.72;;;20.02;32.64
9839;BME280;4958;48.150;11.506;2023-02-21T13:39:29;95721.28;;;20.02;32.68
9839;BME280;4958;48.150;11.506;2023-02-21T13:42:05;95724.81;;;20.08;32.88
9839;BME280;4958;48.150;11.506;2023-02-21T13:44:33;95727.06;;;20.16;32.62
9839;BME280;4958;48.150;11.506;2023-02-21T13:47:11;95719.50;;;20.31;32.20